Time;durP1;ratioP1;P1;durP2;ratioP2;P2;SDS_P1;SDS_P2;PMS_P1;PMS_P2;Temp;Humidity;BMP_temperature;BMP_pressure;BME280_temperature;BME280_humidity;BME280_pressure;Samples;Min_cycle;Max_cycle;Signal;HPM_P1;HPM_P2
2023/10/04 00:00:19;;;;;;;;;;;26.90;75.60;;;;;;5094239;28;20025;-73
2023/10/04 00:02:48;;;;;;;;;;;27.00;75.80;;;;;;5094769;28;19908;-71
2023/10/04 00:05:16;;;;;;;;;;;27.10;75.20;;;;;;5094577;28;19912;-71
2023/10/04 00:07:46;;;;;;;;;;;27.20;74.90;;;;;;5094312;28;19943;-69
2023/10/04 00:10:13;;;;;;;;;;;27.30;75.20;;;;;;5094236;28;19908;-70
2023/10/04 00:12:41;;;;;;;;;;;27.40;74.30;;;;;;5094318;28;20403;-70
2023/10/04 00:15:14;;;;;;;;;;;27.40;74.60;;;;;;5094223;28;19908;-70
2023/10/04 00:17:44;;;;;;;;;;;27.60;74.30;;;;;;5094317;28;20357;-71
2023/10/04 00:20:17;;;;;;;;;;;27.70;74.30;;;;;;5094185;28;19912;-68
2023/10/04 00:22:46;;;;;;;;;;;27.80;74.20;;;;;;5094080;28;19973;-70
2023/10/04 00:25:16;;;;;;;;;;;28.00;74.20;;;;;;5094047;28;20283;-69
2023/10/04 00:27:43;;;;;;;;;;;28.10;74.40;;;;;;5094093;28;19995;-69
2023/10/04 00:30:11;;;;;;;;;;;28.00;73.80;;;;;;5093836;28;20414;-68
2023/10/04 00:32:38;;;;;;;;;;;28.20;73.40;;;;;;5093679;28;19916;-68
2023/10/04 00:35:17;;;;;;;;;;;28.50;72.90;;;;;;5093249;28;20273;-70
2023/10/04 00:37:47;;;;;;;;;;;28.50;72.40;;;;;;5093858;28;20007;-70
2023/10/04 00:40:19;;;;;;;;;;;28.60;73.30;;;;;;5093391;28;20374;-68
2023/10/04 00:42:49;;;;;;;;;;;28.60;72.60;;;;;;5093691;28;19908;-69
2023/10/04 00:45:17;;;;;;;;;;;28.50;73.00;;;;;;5093490;28;20336;-68
2023/10/04 00:47:47;;;;;;;;;;;28.20;72.50;;;;;;5093439;28;20003;-72
2023/10/04 00:50:16;;;;;;;;;;;28.00;73.30;;;;;;5093571;28;19927;-72
2023/10/04 00:52:57;;;;;;;;;;;27.90;72.90;;;;;;5093374;28;19995;-70
2023/10/04 00:55:24;;;;;;;;;;;27.90;73.70;;;;;;5093608;28;19912;-70
2023/10/04 00:57:56;;;;;;;;;;;27.90;73.80;;;;;;5093367;28;19916;-71
2023/10/04 01:00:24;;;;;;;;;;;28.20;73.50;;;;;;5093194;28;19961;-71
2023/10/04 01:02:51;;;;;;;;;;;28.40;73.80;;;;;;5093258;28;19908;-73
2023/10/04 01:05:26;;;;;;;;;;;28.60;73.30;;;;;;5093272;28;19908;-69
2023/10/04 01:07:53;;;;;;;;;;;28.60;73.30;;;;;;5093264;28;20377;-70
2023/10/04 01:10:54;;;;;;;;;;;28.50;73.60;;;;;;5093019;28;19909;-70
2023/10/04 01:13:17;;;;;;;;;;;28.30;73.90;;;;;;5091821;28;19916;-68
2023/10/04 01:15:44;;;;;;;;;;;28.10;74.20;;;;;;5093161;28;19934;-67
2023/10/04 01:18:15;;;;;;;;;;;28.00;75.30;;;;;;5093198;28;19912;-67
2023/10/04 01:20:41;;;;;;;;;;;27.90;75.10;;;;;;5092744;28;19951;-68
2023/10/04 01:23:10;;;;;;;;;;;27.70;74.70;;;;;;5093216;28;19944;-70
2023/10/04 01:25:38;;;;;;;;;;;27.70;75.00;;;;;;5093081;28;19949;-70
2023/10/04 01:28:18;;;;;;;;;;;27.80;74.50;;;;;;5092901;28;19995;-71
2023/10/04 01:30:45;;;;;;;;;;;27.80;74.50;;;;;;5092826;28;19909;-68
2023/10/04 01:33:16;;;;;;;;;;;28.10;74.60;;;;;;5093008;28;19908;-72
2023/10/04 01:35:45;;;;;;;;;;;28.40;73.90;;;;;;5091965;28;19912;-72
2023/10/04 01:38:15;;;;;;;;;;;28.50;73.10;;;;;;5092925;28;19908;-71
2023/10/04 01:40:43;;;;;;;;;;;28.30;72.90;;;;;;5093614;28;19908;-70
2023/10/04 01:43:15;;;;;;;;;;;28.30;73.20;;;;;;5093220;28;19908;-70
2023/10/04 01:45:45;;;;;;;;;;;28.50;73.00;;;;;;5092396;28;19912;-68
2023/10/04 01:48:15;;;;;;;;;;;28.70;72.70;;;;;;5094174;28;20403;-71
2023/10/04 01:50:46;;;;;;;;;;;28.90;73.60;;;;;;5096660;28;19947;-68
2023/10/04 01:53:13;;;;;;;;;;;29.00;73.20;;;;;;5096866;28;20383;-72
2023/10/04 01:55:40;;;;;;;;;;;29.00;72.80;;;;;;5096710;28;20285;-70
2023/10/04 01:58:08;;;;;;;;;;;29.00;72.50;;;;;;5096497;28;19931;-73
2023/10/04 02:00:35;;;;;;;;;;;28.90;72.10;;;;;;5096590;28;20033;-70
2023/10/04 02:03:02;;;;;;;;;;;28.70;73.00;;;;;;5096778;28;19912;-72
2023/10/04 02:05:36;;;;;;;;;;;28.30;73.10;;;;;;5096860;28;19908;-69
2023/10/04 02:08:07;;;;;;;;;;;28.00;73.10;;;;;;5096730;28;19915;-68
2023/10/04 02:10:34;;;;;;;;;;;27.60;73.80;;;;;;5096536;28;19912;-68
2023/10/04 02:13:00;;;;;;;;;;;27.40;74.50;;;;;;5097098;28;20006;-70
2023/10/04 02:15:27;;;;;;;;;;;27.20;74.80;;;;;;5096143;28;19908;-69
2023/10/04 02:17:54;;;;;;;;;;;27.10;75.00;;;;;;5096431;28;20002;-67
2023/10/04 02:20:24;;;;;;;;;;;27.20;75.30;;;;;;5096521;28;20006;-68
2023/10/04 02:22:51;;;;;;;;;;;27.60;75.50;;;;;;5096617;28;19908;-68
2023/10/04 02:25:19;;;;;;;;;;;27.80;74.30;;;;;;5096438;28;19908;-68
2023/10/04 02:27:49;;;;;;;;;;;28.00;74.20;;;;;;5096029;28;19908;-69
2023/10/04 02:30:21;;;;;;;;;;;28.10;73.90;;;;;;5096237;28;19961;-70
2023/10/04 02:32:48;;;;;;;;;;;28.10;74.00;;;;;;5096261;28;19916;-70
2023/10/04 02:35:43;;;;;;;;;;;28.10;73.80;;;;;;5096117;28;19955;-69
2023/10/04 02:38:10;;;;;;;;;;;28.00;73.30;;;;;;5096021;28;19954;-68
2023/10/04 02:40:37;;;;;;;;;;;27.70;74.10;;;;;;5095846;28;19923;-69
2023/10/04 02:43:06;;;;;;;;;;;27.60;74.30;;;;;;5096475;28;19967;-70
2023/10/04 02:45:36;;;;;;;;;;;27.40;74.80;;;;;;5096081;28;19982;-70
2023/10/04 02:48:09;;;;;;;;;;;27.30;75.20;;;;;;5095887;28;19908;-68
2023/10/04 02:50:39;;;;;;;;;;;27.20;75.00;;;;;;5095603;28;20376;-71
2023/10/04 02:53:08;;;;;;;;;;;27.10;75.20;;;;;;5095836;28;20002;-68
2023/10/04 02:55:38;;;;;;;;;;;27.20;75.00;;;;;;5095846;28;19916;-69
2023/10/04 02:58:06;;;;;;;;;;;27.30;75.60;;;;;;5095595;28;19953;-68
2023/10/04 03:00:33;;;;;;;;;;;27.30;75.60;;;;;;5095490;28;19908;-71
2023/10/04 03:03:00;;;;;;;;;;;27.40;76.10;;;;;;5095350;28;19939;-71
2023/10/04 03:05:32;;;;;;;;;;;27.30;75.20;;;;;;5095407;28;20426;-71
2023/10/04 03:08:06;;;;;;;;;;;27.10;75.30;;;;;;5095504;28;20005;-71
2023/10/04 03:10:37;;;;;;;;;;;26.90;75.60;;;;;;5095350;28;20384;-70
2023/10/04 03:13:11;;;;;;;;;;;26.80;76.10;;;;;;5095554;28;20384;-67
2023/10/04 03:15:39;;;;;;;;;;;26.70;75.80;;;;;;5095352;28;19935;-69
2023/10/04 03:18:13;;;;;;;;;;;26.60;76.00;;;;;;5095432;28;19908;-72
2023/10/04 03:20:49;;;;;;;;;;;26.60;76.20;;;;;;5095309;28;19908;-71
2023/10/04 03:23:18;;;;;;;;;;;26.60;76.50;;;;;;5093891;28;20003;-68
2023/10/04 03:25:48;;;;;;;;;;;26.80;76.70;;;;;;5095198;28;19908;-70
2023/10/04 03:28:15;;;;;;;;;;;27.00;76.40;;;;;;5095119;28;19915;-69
2023/10/04 03:30:45;;;;;;;;;;;27.10;76.10;;;;;;5095072;28;19977;-68
2023/10/04 03:33:12;;;;;;;;;;;27.40;75.40;;;;;;5094883;28;20369;-73
2023/10/04 03:35:39;;;;;;;;;;;27.60;75.00;;;;;;5095181;28;19915;-70
2023/10/04 03:38:06;;;;;;;;;;;27.60;74.60;;;;;;5095196;28;19963;-71
2023/10/04 03:40:36;;;;;;;;;;;27.40;75.00;;;;;;5094843;28;20284;-72
2023/10/04 03:43:06;;;;;;;;;;;27.20;74.80;;;;;;5094808;28;19954;-73
2023/10/04 03:45:39;;;;;;;;;;;27.00;75.40;;;;;;5094825;28;19914;-69
2023/10/04 03:48:16;;;;;;;;;;;26.80;75.70;;;;;;5094909;28;19970;-71
2023/10/04 03:50:45;;;;;;;;;;;26.60;76.20;;;;;;5094686;28;19908;-70
2023/10/04 03:53:12;;;;;;;;;;;26.50;75.70;;;;;;5094584;28;19923;-70
2023/10/04 03:55:39;;;;;;;;;;;26.50;75.90;;;;;;5094583;28;19908;-72
2023/10/04 03:58:07;;;;;;;;;;;26.40;75.90;;;;;;5093152;28;19908;-69
2023/10/04 04:00:34;;;;;;;;;;;26.30;75.90;;;;;;5094567;28;20372;-71
2023/10/04 04:03:01;;;;;;;;;;;26.30;76.10;;;;;;5094496;28;19912;-70
2023/10/04 04:05:29;;;;;;;;;;;26.30;76.50;;;;;;5094454;28;19916;-69
2023/10/04 04:07:56;;;;;;;;;;;26.20;76.50;;;;;;5093958;28;20349;-70
2023/10/04 04:10:24;;;;;;;;;;;26.20;76.60;;;;;;5093249;28;20250;-72
2023/10/04 04:12:51;;;;;;;;;;;26.20;76.50;;;;;;5094235;28;20015;-69
2023/10/04 04:15:18;;;;;;;;;;;26.30;76.70;;;;;;5094223;28;20392;-70
2023/10/04 04:17:45;;;;;;;;;;;26.40;76.00;;;;;;5094193;28;20398;-69
2023/10/04 04:20:16;;;;;;;;;;;26.40;75.80;;;;;;5093851;28;19912;-67
2023/10/04 04:22:56;;;;;;;;;;;26.50;75.70;;;;;;5094051;28;19908;-71
2023/10/04 04:25:26;;;;;;;;;;;26.50;75.20;;;;;;5093988;28;19908;-70
2023/10/04 04:27:56;;;;;;;;;;;26.50;75.80;;;;;;5093948;28;19908;-69
2023/10/04 04:30:28;;;;;;;;;;;26.40;75.70;;;;;;5092572;28;20349;-68
2023/10/04 04:32:58;;;;;;;;;;;26.30;75.70;;;;;;5093861;28;20016;-69
2023/10/04 04:38:15;;;;;;;;;;;26.30;76.10;;;;;;5094116;28;20012;-68
2023/10/04 04:40:49;;;;;;;;;;;26.20;76.30;;;;;;5093823;28;19915;-68
2023/10/04 04:45:52;;;;;;;;;;;26.00;76.30;;;;;;5093807;28;19915;-72
2023/10/04 04:48:23;;;;;;;;;;;25.90;76.40;;;;;;5093612;28;19915;-72
2023/10/04 04:51:31;;;;;;;;;;;25.90;77.20;;;;;;5092339;28;19912;-70
2023/10/04 04:53:53;;;;;;;;;;;25.90;76.90;;;;;;5092154;28;19916;-69
2023/10/04 04:56:22;;;;;;;;;;;25.80;77.30;;;;;;5093626;28;19916;-70
2023/10/04 04:58:51;;;;;;;;;;;25.80;77.20;;;;;;5093233;28;19909;-72
2023/10/04 05:01:18;;;;;;;;;;;25.80;77.10;;;;;;5093524;28;19915;-70
2023/10/04 05:03:50;;;;;;;;;;;25.80;77.30;;;;;;5093479;28;20003;-70
2023/10/04 05:06:22;;;;;;;;;;;25.80;77.10;;;;;;5093416;28;19915;-71
2023/10/04 05:08:56;;;;;;;;;;;25.60;77.50;;;;;;5093140;28;20288;-70
2023/10/04 05:11:26;;;;;;;;;;;25.50;82.10;;;;;;5093349;28;20003;-68
2023/10/04 05:13:57;;;;;;;;;;;25.30;85.60;;;;;;5093205;28;19908;-73
2023/10/04 05:16:25;;;;;;;;;;;25.10;87.60;;;;;;5092812;28;19908;-73
2023/10/04 05:18:53;;;;;;;;;;;24.90;88.40;;;;;;5093244;28;19912;-70
2023/10/04 05:21:20;;;;;;;;;;;24.50;88.20;;;;;;5092968;28;19957;-74
2023/10/04 05:23:47;;;;;;;;;;;24.20;90.60;;;;;;5093307;28;19939;-72
2023/10/04 05:26:13;;;;;;;;;;;24.20;92.40;;;;;;5093336;28;19915;-70
2023/10/04 05:28:40;;;;;;;;;;;24.00;95.20;;;;;;5093052;28;19908;-71
2023/10/04 05:31:08;;;;;;;;;;;23.90;97.10;;;;;;5092715;28;19908;-70
2023/10/04 05:33:35;;;;;;;;;;;23.80;98.80;;;;;;5092903;28;19946;-68
2023/10/04 05:36:02;;;;;;;;;;;23.80;99.90;;;;;;5093013;28;19919;-73
2023/10/04 05:38:29;;;;;;;;;;;23.60;99.90;;;;;;5092982;28;20368;-68
2023/10/04 05:40:57;;;;;;;;;;;23.40;99.90;;;;;;5092986;28;19973;-70
2023/10/04 05:43:24;;;;;;;;;;;23.40;99.90;;;;;;5092671;28;19908;-71
2023/10/04 05:45:50;;;;;;;;;;;23.10;99.90;;;;;;5092817;28;19960;-72
2023/10/04 05:48:20;;;;;;;;;;;23.10;99.90;;;;;;5092979;28;19938;-73
2023/10/04 05:50:50;;;;;;;;;;;23.00;99.90;;;;;;5092753;28;20276;-72
2023/10/04 05:53:26;;;;;;;;;;;22.80;99.90;;;;;;5092843;28;20382;-72
2023/10/04 05:55:53;;;;;;;;;;;22.80;99.90;;;;;;5092536;28;19934;-70
2023/10/04 05:58:21;;;;;;;;;;;22.70;99.90;;;;;;5092727;28;19908;-69
2023/10/04 06:00:56;;;;;;;;;;;22.60;99.90;;;;;;5092468;28;19909;-71
2023/10/04 06:03:23;;;;;;;;;;;22.40;99.90;;;;;;5092516;28;19916;-71
2023/10/04 06:05:52;;;;;;;;;;;22.40;99.90;;;;;;5092369;28;19958;-74
2023/10/04 06:08:19;;;;;;;;;;;22.40;99.90;;;;;;5092491;28;20003;-72
2023/10/04 06:10:47;;;;;;;;;;;22.50;99.90;;;;;;5092598;28;19999;-72
2023/10/04 06:13:16;;;;;;;;;;;22.50;99.90;;;;;;5092272;28;19916;-72
2023/10/04 06:15:44;;;;;;;;;;;22.50;99.90;;;;;;5092431;28;20458;-72
2023/10/04 06:18:14;;;;;;;;;;;22.40;99.90;;;;;;5092401;28;19955;-72
2023/10/04 06:20:41;;;;;;;;;;;22.50;99.90;;;;;;5092353;28;19908;-69
2023/10/04 06:23:09;;;;;;;;;;;22.50;99.90;;;;;;5092534;28;19916;-69
2023/10/04 06:25:56;;;;;;;;;;;22.50;99.90;;;;;;5092266;28;20261;-69
2023/10/04 06:28:22;;;;;;;;;;;22.50;99.90;;;;;;5091931;28;19908;-70
2023/10/04 06:30:50;;;;;;;;;;;22.40;99.90;;;;;;5092312;28;20001;-70
2023/10/04 06:33:16;;;;;;;;;;;22.40;99.90;;;;;;5092160;28;19916;-69
2023/10/04 06:35:43;;;;;;;;;;;22.40;99.90;;;;;;5096209;28;19919;-70
2023/10/04 06:38:10;;;;;;;;;;;22.40;99.90;;;;;;5096114;28;19938;-72
2023/10/04 06:40:37;;;;;;;;;;;22.40;99.90;;;;;;5096009;28;19958;-71
2023/10/04 06:43:05;;;;;;;;;;;22.30;99.90;;;;;;5096214;28;19908;-71
2023/10/04 06:45:32;;;;;;;;;;;22.30;99.90;;;;;;5096024;28;19915;-69
2023/10/04 06:47:59;;;;;;;;;;;22.30;99.90;;;;;;5095850;28;19999;-72
2023/10/04 06:50:32;;;;;;;;;;;22.20;99.90;;;;;;5095682;28;19908;-72
2023/10/04 06:53:01;;;;;;;;;;;22.30;99.90;;;;;;5094545;28;19920;-70
2023/10/04 06:55:28;;;;;;;;;;;22.20;99.90;;;;;;5095629;28;19912;-72
2023/10/04 06:57:55;;;;;;;;;;;22.30;99.90;;;;;;5094451;28;20280;-69
2023/10/04 07:00:23;;;;;;;;;;;22.20;99.90;;;;;;5095596;28;20303;-70
2023/10/04 07:02:55;;;;;;;;;;;22.20;99.90;;;;;;5095867;28;20321;-70
2023/10/04 07:05:23;;;;;;;;;;;22.10;99.90;;;;;;5095700;28;20276;-69
2023/10/04 07:07:52;;;;;;;;;;;22.20;99.90;;;;;;5095789;28;19908;-70
2023/10/04 07:10:20;;;;;;;;;;;22.10;99.90;;;;;;5095724;28;20356;-67
2023/10/04 07:12:47;;;;;;;;;;;22.00;99.90;;;;;;5095554;28;19981;-71
2023/10/04 07:15:15;;;;;;;;;;;22.10;99.90;;;;;;5095150;28;20009;-69
2023/10/04 07:17:42;;;;;;;;;;;22.00;99.90;;;;;;5095341;28;19912;-66
2023/10/04 07:20:15;;;;;;;;;;;21.90;99.90;;;;;;5095382;28;20007;-68
2023/10/04 07:22:46;;;;;;;;;;;21.80;99.90;;;;;;5095299;28;19913;-68
2023/10/04 07:25:13;;;;;;;;;;;21.80;99.90;;;;;;5095283;28;19965;-69
2023/10/04 07:27:41;;;;;;;;;;;21.90;99.90;;;;;;5095226;28;19991;-70
2023/10/04 07:30:12;;;;;;;;;;;21.90;99.90;;;;;;5095029;28;19908;-71
2023/10/04 07:32:43;;;;;;;;;;;22.00;99.90;;;;;;5095231;28;19916;-67
2023/10/04 07:35:18;;;;;;;;;;;22.00;99.90;;;;;;5095108;28;20253;-69
2023/10/04 07:37:46;;;;;;;;;;;22.00;99.90;;;;;;5094858;28;19908;-69
2023/10/04 07:40:14;;;;;;;;;;;22.00;99.90;;;;;;5094890;28;19908;-68
2023/10/04 07:42:41;;;;;;;;;;;22.00;99.90;;;;;;5095142;28;20029;-70
2023/10/04 07:45:09;;;;;;;;;;;21.90;99.90;;;;;;5094854;28;19915;-69
2023/10/04 07:47:39;;;;;;;;;;;21.80;99.90;;;;;;5094687;28;19915;-68
2023/10/04 07:50:09;;;;;;;;;;;21.80;99.90;;;;;;5094574;28;19920;-70
2023/10/04 07:52:37;;;;;;;;;;;21.70;99.90;;;;;;5094750;28;20019;-69
2023/10/04 07:55:05;;;;;;;;;;;21.50;99.90;;;;;;5094851;28;19908;-69
2023/10/04 07:57:36;;;;;;;;;;;21.40;99.90;;;;;;5094785;28;19965;-69
2023/10/04 08:00:04;;;;;;;;;;;21.20;99.90;;;;;;5094389;28;19953;-68
2023/10/04 08:02:31;;;;;;;;;;;21.10;99.90;;;;;;5094565;28;19908;-69
2023/10/04 08:04:57;;;;;;;;;;;21.00;99.90;;;;;;5094697;28;19909;-68
2023/10/04 08:07:24;;;;;;;;;;;20.80;99.90;;;;;;5094804;28;19908;-68
2023/10/04 08:09:52;;;;;;;;;;;20.70;99.90;;;;;;5094539;28;20246;-69
2023/10/04 08:12:20;;;;;;;;;;;20.50;99.90;;;;;;5094778;28;19920;-69
2023/10/04 08:14:47;;;;;;;;;;;20.30;99.90;;;;;;5094405;28;19908;-68
2023/10/04 08:17:16;;;;;;;;;;;20.10;99.90;;;;;;5094063;28;19918;-69
2023/10/04 08:19:43;;;;;;;;;;;20.00;99.90;;;;;;5094046;28;19996;-68
2023/10/04 08:22:10;;;;;;;;;;;19.80;99.90;;;;;;5094207;28;19908;-69
2023/10/04 08:24:37;;;;;;;;;;;19.70;99.90;;;;;;5094173;28;19908;-68
2023/10/04 08:27:04;;;;;;;;;;;19.60;99.90;;;;;;5094076;28;19914;-68
2023/10/04 08:29:34;;;;;;;;;;;19.50;99.90;;;;;;5093925;28;19914;-70
2023/10/04 08:32:00;;;;;;;;;;;19.40;99.90;;;;;;5093794;28;19916;-71
2023/10/04 08:34:27;;;;;;;;;;;19.40;99.90;;;;;;5094134;28;19908;-68
2023/10/04 08:36:56;;;;;;;;;;;19.30;99.90;;;;;;5094027;28;20344;-68
2023/10/04 08:39:22;;;;;;;;;;;19.30;99.90;;;;;;5093797;28;19927;-69
2023/10/04 08:41:49;;;;;;;;;;;19.20;99.90;;;;;;5094229;28;20423;-67
2023/10/04 08:44:16;;;;;;;;;;;19.10;99.90;;;;;;5093523;28;19915;-68
2023/10/04 08:46:43;;;;;;;;;;;19.00;99.90;;;;;;5093711;28;19908;-68
2023/10/04 08:49:10;;;;;;;;;;;19.00;99.90;;;;;;5093324;28;20369;-68
2023/10/04 08:51:50;;;;;;;;;;;19.00;99.90;;;;;;5093249;28;20525;-68
2023/10/04 08:54:26;;;;;;;;;;;19.00;99.90;;;;;;5093536;28;19961;-67
2023/10/04 08:57:14;;;;;;;;;;;18.90;99.90;;;;;;5092292;28;21015;-68
2023/10/04 08:59:44;;;;;;;;;;;18.80;99.90;;;;;;5093575;28;19911;-70
2023/10/04 09:02:13;;;;;;;;;;;18.90;99.90;;;;;;5093522;28;19947;-67
2023/10/04 09:04:40;;;;;;;;;;;18.90;99.90;;;;;;5093508;28;20016;-69
2023/10/04 09:07:08;;;;;;;;;;;18.90;99.90;;;;;;5093484;28;19915;-69
2023/10/04 09:09:38;;;;;;;;;;;18.90;99.90;;;;;;5093358;28;19908;-69
2023/10/04 09:12:06;;;;;;;;;;;18.90;99.90;;;;;;5093552;28;19916;-67
2023/10/04 09:14:34;;;;;;;;;;;18.80;99.90;;;;;;5093556;28;20276;-67
2023/10/04 09:17:05;;;;;;;;;;;18.70;99.90;;;;;;5093843;28;20299;-71
2023/10/04 09:19:32;;;;;;;;;;;18.70;99.90;;;;;;5093236;28;19922;-69
2023/10/04 09:22:03;;;;;;;;;;;18.60;99.90;;;;;;5093097;28;19916;-68
2023/10/04 09:24:30;;;;;;;;;;;18.50;99.90;;;;;;5092911;28;20379;-69
2023/10/04 09:26:57;;;;;;;;;;;18.50;99.90;;;;;;5092966;28;19908;-69
2023/10/04 09:29:33;;;;;;;;;;;18.40;99.90;;;;;;5092686;28;19908;-70
2023/10/04 09:32:00;;;;;;;;;;;18.20;99.90;;;;;;5092986;28;20322;-70
2023/10/04 09:34:29;;;;;;;;;;;18.00;99.90;;;;;;5091757;28;19961;-69
2023/10/04 09:36:56;;;;;;;;;;;17.90;99.90;;;;;;5093081;28;20041;-68
2023/10/04 09:39:24;;;;;;;;;;;17.80;99.90;;;;;;5092812;28;19908;-72
2023/10/04 09:41:51;;;;;;;;;;;17.70;99.90;;;;;;5092974;28;19987;-70
2023/10/04 09:44:24;;;;;;;;;;;17.60;99.90;;;;;;5092960;28;19915;-68
2023/10/04 09:46:54;;;;;;;;;;;17.50;99.90;;;;;;5092924;28;19916;-70
2023/10/04 09:49:22;;;;;;;;;;;17.30;99.90;;;;;;5092588;28;19955;-69
2023/10/04 09:51:49;;;;;;;;;;;17.20;99.90;;;;;;5092717;28;20364;-68
2023/10/04 09:54:19;;;;;;;;;;;17.10;99.90;;;;;;5093010;28;20002;-69
2023/10/04 09:56:51;;;;;;;;;;;17.00;99.90;;;;;;5092919;28;19955;-69
2023/10/04 09:59:19;;;;;;;;;;;16.80;99.90;;;;;;5092935;28;19912;-69
2023/10/04 10:01:59;;;;;;;;;;;16.70;99.90;;;;;;5092784;28;19914;-69
2023/10/04 10:04:29;;;;;;;;;;;16.60;99.90;;;;;;5092617;28;20003;-68
2023/10/04 10:07:06;;;;;;;;;;;16.60;99.90;;;;;;5092737;28;19930;-69
2023/10/04 10:09:35;;;;;;;;;;;16.50;99.90;;;;;;5095000;28;19947;-69
2023/10/04 10:12:02;;;;;;;;;;;16.30;99.90;;;;;;5096661;28;20010;-70
2023/10/04 10:14:31;;;;;;;;;;;16.20;99.90;;;;;;5096596;28;19912;-68
2023/10/04 10:16:57;;;;;;;;;;;16.10;99.90;;;;;;5096604;28;19909;-68
2023/10/04 10:19:24;;;;;;;;;;;16.10;99.90;;;;;;5096289;28;19908;-68
2023/10/04 10:22:18;;;;;;;;;;;16.00;99.90;;;;;;5096483;28;20365;-69
2023/10/04 10:24:45;;;;;;;;;;;15.90;99.90;;;;;;5095523;28;19941;-69
2023/10/04 10:27:13;;;;;;;;;;;16.00;99.90;;;;;;5096246;28;19908;-68
2023/10/04 10:29:40;;;;;;;;;;;15.90;99.90;;;;;;5096183;28;20397;-68
2023/10/04 10:32:18;;;;;;;;;;;15.80;99.90;;;;;;5095234;28;19916;-67
2023/10/04 10:34:45;;;;;;;;;;;15.70;99.90;;;;;;5095011;28;20319;-68
2023/10/04 10:37:19;;;;;;;;;;;15.70;99.90;;;;;;5096211;28;19995;-69
2023/10/04 10:39:47;;;;;;;;;;;15.60;99.90;;;;;;5095933;28;19915;-71
2023/10/04 10:42:14;;;;;;;;;;;15.60;99.90;;;;;;5096004;28;19908;-69
2023/10/04 10:44:41;;;;;;;;;;;15.60;99.90;;;;;;5096019;28;20284;-68
2023/10/04 10:47:25;;;;;;;;;;;15.50;99.90;;;;;;5094746;28;19912;-70
2023/10/04 10:50:12;;;;;;;;;;;15.40;99.90;;;;;;5095453;28;19920;-69
2023/10/04 10:52:41;;;;;;;;;;;15.20;99.90;;;;;;5095812;28;19943;-71
2023/10/04 10:55:17;;;;;;;;;;;15.10;99.90;;;;;;5096104;28;19953;-69
2023/10/04 10:57:47;;;;;;;;;;;15.10;99.90;;;;;;5096439;28;19916;-70
2023/10/04 11:02:41;;;;;;;;;;;14.90;99.90;;;;;;5095821;28;19931;-69
2023/10/04 11:05:08;;;;;;;;;;;14.80;99.90;;;;;;5095699;28;19943;-70
2023/10/04 11:07:37;;;;;;;;;;;14.70;99.90;;;;;;5095668;28;20284;-69
2023/10/04 11:10:05;;;;;;;;;;;14.60;99.90;;;;;;5095474;28;19951;-71
2023/10/04 11:12:38;;;;;;;;;;;14.60;99.90;;;;;;5095371;28;19928;-70
2023/10/04 11:15:08;;;;;;;;;;;14.60;99.90;;;;;;5095731;28;20065;-68
2023/10/04 11:17:36;;;;;;;;;;;14.60;99.90;;;;;;5095463;28;19957;-69
2023/10/04 11:20:12;;;;;;;;;;;14.60;99.90;;;;;;5094933;28;19920;-69
2023/10/04 11:22:39;;;;;;;;;;;14.60;99.90;;;;;;5095512;28;19958;-69
2023/10/04 11:25:07;;;;;;;;;;;14.50;99.90;;;;;;5094984;28;19908;-68
2023/10/04 11:27:35;;;;;;;;;;;14.40;99.90;;;;;;5095117;28;19916;-71
2023/10/04 11:30:02;;;;;;;;;;;14.50;99.90;;;;;;5095246;28;19914;-70
2023/10/04 11:32:29;;;;;;;;;;;14.50;99.90;;;;;;5095116;28;19916;-71
2023/10/04 11:34:59;;;;;;;;;;;14.50;99.90;;;;;;5093556;28;19965;-70
2023/10/04 11:37:31;;;;;;;;;;;14.50;99.90;;;;;;5094929;28;19912;-72
2023/10/04 11:39:58;;;;;;;;;;;14.50;99.90;;;;;;5094895;28;19962;-70
2023/10/04 11:42:25;;;;;;;;;;;14.50;99.90;;;;;;5095057;28;19916;-72
2023/10/04 11:44:52;;;;;;;;;;;14.50;99.90;;;;;;5094985;28;19912;-72
2023/10/04 11:47:31;;;;;;;;;;;14.60;99.90;;;;;;5094961;28;19908;-69
2023/10/04 11:50:07;;;;;;;;;;;14.50;99.90;;;;;;5094499;28;20308;-70
2023/10/04 11:52:34;;;;;;;;;;;14.50;99.90;;;;;;5094601;28;19973;-72
2023/10/04 11:55:01;;;;;;;;;;;14.40;99.90;;;;;;5094795;28;20002;-68
2023/10/04 11:57:28;;;;;;;;;;;14.30;99.90;;;;;;5094795;28;20010;-72
2023/10/04 11:59:59;;;;;;;;;;;14.30;99.90;;;;;;5094978;28;20906;-70
2023/10/04 12:02:25;;;;;;;;;;;14.20;99.90;;;;;;5094650;28;19912;-68
2023/10/04 12:04:52;;;;;;;;;;;14.20;99.90;;;;;;5094596;28;19924;-69
2023/10/04 12:07:19;;;;;;;;;;;14.00;99.90;;;;;;5094489;28;19908;-68
2023/10/04 12:09:46;;;;;;;;;;;13.90;99.90;;;;;;5094598;28;20336;-67
2023/10/04 12:12:16;;;;;;;;;;;13.80;99.90;;;;;;5094575;28;20332;-67
2023/10/04 12:14:49;;;;;;;;;;;13.80;99.90;;;;;;5094392;28;19908;-67
2023/10/04 12:17:16;;;;;;;;;;;13.90;99.90;;;;;;5094493;28;20357;-68
2023/10/04 12:19:43;;;;;;;;;;;13.80;99.90;;;;;;5094369;28;19908;-66
2023/10/04 12:22:09;;;;;;;;;;;13.80;99.90;;;;;;5094239;28;19930;-69
2023/10/04 12:24:37;;;;;;;;;;;13.90;99.90;;;;;;5094102;28;19998;-70
2023/10/04 12:27:07;;;;;;;;;;;13.80;99.90;;;;;;5094201;28;19908;-70
2023/10/04 12:29:36;;;;;;;;;;;13.80;99.90;;;;;;5093917;28;19919;-71
2023/10/04 12:32:02;;;;;;;;;;;13.90;99.90;;;;;;5092969;28;20356;-70
2023/10/04 12:34:29;;;;;;;;;;;13.90;99.90;;;;;;5094017;28;19914;-69
2023/10/04 12:36:56;;;;;;;;;;;13.90;99.90;;;;;;5094069;28;20276;-68
2023/10/04 12:39:23;;;;;;;;;;;13.90;99.90;;;;;;5093863;28;19908;-70
2023/10/04 12:41:50;;;;;;;;;;;13.90;99.90;;;;;;5093820;28;19961;-69
2023/10/04 12:44:20;;;;;;;;;;;13.90;99.90;;;;;;5093706;28;20010;-69
2023/10/04 12:46:50;;;;;;;;;;;13.90;99.90;;;;;;5094059;28;19938;-72
2023/10/04 12:49:19;;;;;;;;;;;14.00;99.90;;;;;;5093808;28;19920;-69
2023/10/04 12:51:46;;;;;;;;;;;13.90;99.90;;;;;;5093675;28;19947;-71
2023/10/04 12:54:12;;;;;;;;;;;13.90;99.90;;;;;;5093684;28;20002;-69
2023/10/04 12:56:40;;;;;;;;;;;13.90;99.90;;;;;;5093625;28;19915;-69
2023/10/04 12:59:06;;;;;;;;;;;14.00;99.90;;;;;;5093948;28;20312;-70
2023/10/04 13:01:33;;;;;;;;;;;13.90;99.90;;;;;;5094080;28;19995;-69
2023/10/04 13:04:03;;;;;;;;;;;13.90;99.90;;;;;;5093797;28;19908;-70
2023/10/04 13:06:30;;;;;;;;;;;13.90;99.90;;;;;;5093986;28;20365;-70
2023/10/04 13:08:57;;;;;;;;;;;13.80;99.90;;;;;;5093561;28;19908;-71
2023/10/04 13:11:24;;;;;;;;;;;13.70;99.90;;;;;;5093084;28;19908;-69
2023/10/04 13:13:51;;;;;;;;;;;13.80;99.90;;;;;;5093263;28;19998;-69
2023/10/04 13:16:18;;;;;;;;;;;13.80;99.90;;;;;;5093382;28;19955;-68
2023/10/04 13:18:48;;;;;;;;;;;13.80;99.90;;;;;;5093246;28;19915;-68
2023/10/04 13:21:18;;;;;;;;;;;13.70;99.90;;;;;;5093351;28;19908;-68
2023/10/04 13:23:45;;;;;;;;;;;13.70;99.90;;;;;;5092935;28;19908;-67
2023/10/04 13:26:11;;;;;;;;;;;13.80;99.90;;;;;;5093107;28;20300;-70
2023/10/04 13:28:38;;;;;;;;;;;13.80;99.90;;;;;;5093135;28;19908;-67
2023/10/04 13:31:05;;;;;;;;;;;13.80;99.90;;;;;;5092995;28;19908;-67
2023/10/04 13:33:33;;;;;;;;;;;13.70;99.90;;;;;;5093072;28;19927;-69
2023/10/04 13:36:00;;;;;;;;;;;13.80;99.90;;;;;;5093077;28;19951;-70
2023/10/04 13:38:28;;;;;;;;;;;13.80;99.90;;;;;;5093039;28;19908;-69
2023/10/04 13:40:54;;;;;;;;;;;13.70;99.90;;;;;;5092905;28;19922;-70
2023/10/04 13:43:21;;;;;;;;;;;13.80;99.90;;;;;;5092972;28;20009;-71
2023/10/04 13:45:52;;;;;;;;;;;13.80;99.90;;;;;;5093258;28;19909;-70
2023/10/04 13:48:22;;;;;;;;;;;13.80;99.90;;;;;;5092880;28;19916;-69
2023/10/04 13:50:51;;;;;;;;;;;13.80;99.90;;;;;;5092849;28;20353;-69
2023/10/04 13:53:19;;;;;;;;;;;13.70;99.90;;;;;;5092815;28;19920;-69
2023/10/04 13:55:47;;;;;;;;;;;13.80;99.90;;;;;;5092693;28;19908;-70
2023/10/04 13:58:22;;;;;;;;;;;13.80;99.90;;;;;;5092871;28;20289;-70
2023/10/04 14:00:53;;;;;;;;;;;13.90;99.90;;;;;;5092940;28;19951;-69
2023/10/04 14:03:21;;;;;;;;;;;13.80;99.90;;;;;;5092877;28;19998;-69
2023/10/04 14:05:53;;;;;;;;;;;13.90;99.90;;;;;;5092721;28;20280;-69
2023/10/04 14:08:20;;;;;;;;;;;13.90;99.90;;;;;;5092973;28;19909;-69
2023/10/04 14:10:47;;;;;;;;;;;14.00;99.90;;;;;;5092633;28;20279;-71
2023/10/04 14:13:17;;;;;;;;;;;13.90;99.90;;;;;;5092662;28;19923;-71
2023/10/04 14:15:43;;;;;;;;;;;14.00;99.90;;;;;;5092527;28;19908;-71
2023/10/04 14:18:11;;;;;;;;;;;13.90;99.90;;;;;;5092733;28;20342;-72
2023/10/04 14:20:38;;;;;;;;;;;14.00;99.90;;;;;;5092736;28;19908;-70
2023/10/04 14:23:09;;;;;;;;;;;13.90;99.90;;;;;;5091535;28;20388;-69
2023/10/04 14:25:37;;;;;;;;;;;14.00;99.90;;;;;;5092621;28;19908;-69
2023/10/04 14:28:04;;;;;;;;;;;14.00;99.90;;;;;;5092574;28;20423;-72
2023/10/04 14:30:31;;;;;;;;;;;14.00;99.90;;;;;;5092317;28;19959;-67
2023/10/04 14:32:58;;;;;;;;;;;14.10;99.90;;;;;;5092648;28;19930;-69
2023/10/04 14:35:24;;;;;;;;;;;14.00;99.90;;;;;;5092589;28;20430;-68